sensor_id;sensor_type;location;lat;lon;timestamp;P1;durP1;ratioP1;P2;durP2;ratioP2
34872;SDS011;21084;51.098;14.506;2022-08-03T00:01:28;13.13;;;7.85;;
34872;SDS011;21084;51.098;14.506;2022-08-03T00:03:31;14.27;;;7.78;;
34872;SDS011;21084;51.098;14.506;2022-08-03T00:05:35;8.45;;;7.55;;
34872;SDS011;21084;51.098;14.506;2022-08-03T00:07:38;10.82;;;7.82;;
34872;SDS011;21084;51.098;14.506;2022-08-03T00:09:41;9.27;;;7.72;;
34872;SDS011;21084;51.098;14.506;2022-08-03T00:11:44;10.05;;;8.45;;
34872;SDS011;21084;51.098;14.506;2022-08-03T00:13:51;8.90;;;8.00;;
34872;SDS011;21084;51.098;14.506;2022-08-03T00:15:57;8.35;;;7.55;;
34872;SDS011;21084;51.098;14.506;2022-08-03T00:18:00;12.48;;;7.60;;
34872;SDS011;21084;51.098;14.506;2022-08-03T00:20:03;10.80;;;7.80;;
34872;SDS011;21084;51.098;14.506;2022-08-03T00:22:07;13.88;;;8.30;;
34872;SDS011;21084;51.098;14.506;2022-08-03T00:24:11;8.88;;;7.95;;
34872;SDS011;21084;51.098;14.506;2022-08-03T00:26:14;9.13;;;8.10;;
34872;SDS011;21084;51.098;14.506;2022-08-03T00:28:17;11.60;;;7.82;;
34872;SDS011;21084;51.098;14.506;2022-08-03T00:30:20;8.73;;;7.82;;
34872;SDS011;21084;51.098;14.506;2022-08-03T00:32:30;9.75;;;8.75;;
34872;SDS011;21084;51.098;14.506;2022-08-03T00:34:34;8.88;;;7.80;;
34872;SDS011;21084;51.098;14.506;2022-08-03T00:36:57;15.45;;;8.65;;
34872;SDS011;21084;51.098;14.506;2022-08-03T00:39:00;9.75;;;7.30;;
34872;SDS011;21084;51.098;14.506;2022-08-03T00:41:03;8.68;;;7.65;;
34872;SDS011;21084;51.098;14.506;2022-08-03T00:43:07;10.10;;;7.70;;
34872;SDS011;21084;51.098;14.506;2022-08-03T00:45:10;9.30;;;7.68;;
34872;SDS011;21084;51.098;14.506;2022-08-03T00:47:13;10.68;;;6.90;;
34872;SDS011;21084;51.098;14.506;2022-08-03T00:49:19;10.00;;;7.40;;
34872;SDS011;21084;51.098;14.506;2022-08-03T00:51:22;7.53;;;6.82;;
34872;SDS011;21084;51.098;14.506;2022-08-03T00:53:26;7.55;;;6.20;;
34872;SDS011;21084;51.098;14.506;2022-08-03T00:55:29;7.60;;;6.80;;
34872;SDS011;21084;51.098;14.506;2022-08-03T00:57:33;8.52;;;7.20;;
34872;SDS011;21084;51.098;14.506;2022-08-03T00:59:37;7.57;;;6.78;;
34872;SDS011;21084;51.098;14.506;2022-08-03T01:01:40;8.90;;;7.43;;
34872;SDS011;21084;51.098;14.506;2022-08-03T01:03:43;12.45;;;7.68;;
34872;SDS011;21084;51.098;14.506;2022-08-03T01:05:52;9.55;;;7.25;;
34872;SDS011;21084;51.098;14.506;2022-08-03T01:07:59;7.85;;;7.05;;
34872;SDS011;21084;51.098;14.506;2022-08-03T01:10:05;7.88;;;6.97;;
34872;SDS011;21084;51.098;14.506;2022-08-03T01:12:12;8.23;;;7.25;;
34872;SDS011;21084;51.098;14.506;2022-08-03T01:14:20;7.65;;;6.85;;
34872;SDS011;21084;51.098;14.506;2022-08-03T01:16:29;8.65;;;7.75;;
34872;SDS011;21084;51.098;14.506;2022-08-03T01:18:40;8.40;;;7.18;;
34872;SDS011;21084;51.098;14.506;2022-08-03T01:20:47;7.70;;;6.95;;
34872;SDS011;21084;51.098;14.506;2022-08-03T01:22:59;8.90;;;7.40;;
34872;SDS011;21084;51.098;14.506;2022-08-03T01:25:05;12.63;;;7.30;;
34872;SDS011;21084;51.098;14.506;2022-08-03T01:27:11;9.02;;;7.32;;
34872;SDS011;21084;51.098;14.506;2022-08-03T01:31:38;8.40;;;7.32;;
34872;SDS011;21084;51.098;14.506;2022-08-03T01:34:02;9.18;;;7.65;;
34872;SDS011;21084;51.098;14.506;2022-08-03T01:36:16;13.35;;;7.45;;
34872;SDS011;21084;51.098;14.506;2022-08-03T01:38:21;9.30;;;7.32;;
34872;SDS011;21084;51.098;14.506;2022-08-03T01:40:26;10.93;;;8.02;;
34872;SDS011;21084;51.098;14.506;2022-08-03T01:42:29;8.70;;;7.80;;
34872;SDS011;21084;51.098;14.506;2022-08-03T01:44:34;10.15;;;7.88;;
34872;SDS011;21084;51.098;14.506;2022-08-03T01:46:41;8.75;;;7.85;;
34872;SDS011;21084;51.098;14.506;2022-08-03T01:48:50;10.65;;;7.50;;
34872;SDS011;21084;51.098;14.506;2022-08-03T01:50:53;9.25;;;8.02;;
34872;SDS011;21084;51.098;14.506;2022-08-03T01:52:57;8.73;;;7.35;;
34872;SDS011;21084;51.098;14.506;2022-08-03T01:55:01;9.65;;;8.05;;
34872;SDS011;21084;51.098;14.506;2022-08-03T01:57:05;10.15;;;7.55;;
34872;SDS011;21084;51.098;14.506;2022-08-03T01:59:08;8.05;;;7.22;;
34872;SDS011;21084;51.098;14.506;2022-08-03T02:01:13;10.05;;;6.97;;
34872;SDS011;21084;51.098;14.506;2022-08-03T02:03:20;8.25;;;7.00;;
34872;SDS011;21084;51.098;14.506;2022-08-03T02:05:25;9.32;;;7.20;;
34872;SDS011;21084;51.098;14.506;2022-08-03T02:07:28;13.82;;;7.50;;
34872;SDS011;21084;51.098;14.506;2022-08-03T02:09:32;8.57;;;7.25;;
34872;SDS011;21084;51.098;14.506;2022-08-03T02:11:36;10.88;;;7.55;;
34872;SDS011;21084;51.098;14.506;2022-08-03T02:13:39;9.00;;;7.30;;
34872;SDS011;21084;51.098;14.506;2022-08-03T02:15:42;9.90;;;7.45;;
34872;SDS011;21084;51.098;14.506;2022-08-03T02:17:46;8.77;;;7.32;;
34872;SDS011;21084;51.098;14.506;2022-08-03T02:19:52;8.35;;;7.40;;
34872;SDS011;21084;51.098;14.506;2022-08-03T02:21:55;8.73;;;7.25;;
34872;SDS011;21084;51.098;14.506;2022-08-03T02:24:03;9.15;;;6.90;;
34872;SDS011;21084;51.098;14.506;2022-08-03T02:26:08;8.93;;;7.20;;
34872;SDS011;21084;51.098;14.506;2022-08-03T02:28:14;8.55;;;7.40;;
34872;SDS011;21084;51.098;14.506;2022-08-03T02:30:19;10.15;;;8.00;;
34872;SDS011;21084;51.098;14.506;2022-08-03T02:32:23;8.60;;;7.03;;
34872;SDS011;21084;51.098;14.506;2022-08-03T02:34:30;9.23;;;7.13;;
34872;SDS011;21084;51.098;14.506;2022-08-03T02:36:38;8.20;;;6.78;;
34872;SDS011;21084;51.098;14.506;2022-08-03T02:38:42;7.47;;;6.75;;
34872;SDS011;21084;51.098;14.506;2022-08-03T02:40:47;9.23;;;6.68;;
34872;SDS011;21084;51.098;14.506;2022-08-03T02:42:52;8.23;;;7.00;;
34872;SDS011;21084;51.098;14.506;2022-08-03T02:44:57;7.80;;;7.00;;
34872;SDS011;21084;51.098;14.506;2022-08-03T02:47:02;7.88;;;6.75;;
34872;SDS011;21084;51.098;14.506;2022-08-03T02:49:07;7.28;;;6.57;;
34872;SDS011;21084;51.098;14.506;2022-08-03T02:51:31;7.93;;;6.80;;
34872;SDS011;21084;51.098;14.506;2022-08-03T02:53:37;8.23;;;7.07;;
34872;SDS011;21084;51.098;14.506;2022-08-03T02:55:42;8.75;;;7.00;;
34872;SDS011;21084;51.098;14.506;2022-08-03T02:57:47;9.02;;;7.30;;
34872;SDS011;21084;51.098;14.506;2022-08-03T02:59:50;8.70;;;7.30;;
34872;SDS011;21084;51.098;14.506;2022-08-03T03:01:54;7.43;;;6.68;;
34872;SDS011;21084;51.098;14.506;2022-08-03T03:03:57;7.88;;;7.07;;
34872;SDS011;21084;51.098;14.506;2022-08-03T03:06:06;9.70;;;8.00;;
34872;SDS011;21084;51.098;14.506;2022-08-03T03:08:11;7.88;;;6.80;;
34872;SDS011;21084;51.098;14.506;2022-08-03T03:10:23;7.93;;;6.93;;
34872;SDS011;21084;51.098;14.506;2022-08-03T03:12:27;10.80;;;7.38;;
34872;SDS011;21084;51.098;14.506;2022-08-03T03:14:31;7.80;;;7.00;;
34872;SDS011;21084;51.098;14.506;2022-08-03T03:16:37;8.45;;;7.07;;
34872;SDS011;21084;51.098;14.506;2022-08-03T03:18:41;8.65;;;6.90;;
34872;SDS011;21084;51.098;14.506;2022-08-03T03:20:45;8.77;;;7.30;;
34872;SDS011;21084;51.098;14.506;2022-08-03T03:22:48;9.32;;;6.97;;
34872;SDS011;21084;51.098;14.506;2022-08-03T03:24:52;8.02;;;6.80;;
34872;SDS011;21084;51.098;14.506;2022-08-03T03:26:59;8.45;;;7.05;;
34872;SDS011;21084;51.098;14.506;2022-08-03T03:29:02;9.00;;;7.20;;
34872;SDS011;21084;51.098;14.506;2022-08-03T03:31:06;10.40;;;8.38;;
34872;SDS011;21084;51.098;14.506;2022-08-03T03:33:09;8.60;;;7.70;;
34872;SDS011;21084;51.098;14.506;2022-08-03T03:35:12;8.88;;;7.85;;
34872;SDS011;21084;51.098;14.506;2022-08-03T03:37:16;9.07;;;7.93;;
34872;SDS011;21084;51.098;14.506;2022-08-03T03:39:19;11.65;;;7.95;;
34872;SDS011;21084;51.098;14.506;2022-08-03T03:41:22;9.07;;;7.28;;
34872;SDS011;21084;51.098;14.506;2022-08-03T03:43:28;9.10;;;7.93;;
34872;SDS011;21084;51.098;14.506;2022-08-03T03:45:33;9.20;;;7.25;;
34872;SDS011;21084;51.098;14.506;2022-08-03T03:47:36;11.30;;;8.30;;
34872;SDS011;21084;51.098;14.506;2022-08-03T03:49:39;8.50;;;7.63;;
34872;SDS011;21084;51.098;14.506;2022-08-03T03:51:43;11.95;;;8.50;;
34872;SDS011;21084;51.098;14.506;2022-08-03T03:53:55;10.07;;;7.47;;
34872;SDS011;21084;51.098;14.506;2022-08-03T03:55:59;9.32;;;7.63;;
34872;SDS011;21084;51.098;14.506;2022-08-03T03:58:04;8.18;;;7.20;;
34872;SDS011;21084;51.098;14.506;2022-08-03T04:00:10;11.30;;;7.90;;
34872;SDS011;21084;51.098;14.506;2022-08-03T04:02:13;10.15;;;8.02;;
34872;SDS011;21084;51.098;14.506;2022-08-03T04:04:16;10.57;;;7.68;;
34872;SDS011;21084;51.098;14.506;2022-08-03T04:06:19;9.90;;;7.95;;
34872;SDS011;21084;51.098;14.506;2022-08-03T04:08:22;10.90;;;8.07;;
34872;SDS011;21084;51.098;14.506;2022-08-03T04:10:25;12.45;;;7.70;;
34872;SDS011;21084;51.098;14.506;2022-08-03T04:12:30;10.68;;;8.38;;
34872;SDS011;21084;51.098;14.506;2022-08-03T04:14:34;10.55;;;8.07;;
34872;SDS011;21084;51.098;14.506;2022-08-03T04:16:41;9.05;;;8.10;;
34872;SDS011;21084;51.098;14.506;2022-08-03T04:18:46;9.45;;;7.63;;
34872;SDS011;21084;51.098;14.506;2022-08-03T04:20:51;10.48;;;8.10;;
34872;SDS011;21084;51.098;14.506;2022-08-03T04:22:55;10.93;;;7.90;;
34872;SDS011;21084;51.098;14.506;2022-08-03T04:25:00;9.82;;;7.47;;
34872;SDS011;21084;51.098;14.506;2022-08-03T04:27:05;10.65;;;7.57;;
34872;SDS011;21084;51.098;14.506;2022-08-03T04:29:12;10.57;;;7.35;;
34872;SDS011;21084;51.098;14.506;2022-08-03T04:31:16;12.95;;;7.85;;
34872;SDS011;21084;51.098;14.506;2022-08-03T04:33:22;15.23;;;7.70;;
34872;SDS011;21084;51.098;14.506;2022-08-03T04:35:32;8.52;;;7.53;;
34872;SDS011;21084;51.098;14.506;2022-08-03T04:37:55;9.43;;;7.78;;
34872;SDS011;21084;51.098;14.506;2022-08-03T04:40:01;11.45;;;8.18;;
34872;SDS011;21084;51.098;14.506;2022-08-03T04:42:05;11.38;;;7.72;;
34872;SDS011;21084;51.098;14.506;2022-08-03T04:44:10;9.30;;;7.15;;
34872;SDS011;21084;51.098;14.506;2022-08-03T04:46:15;10.02;;;7.93;;
34872;SDS011;21084;51.098;14.506;2022-08-03T04:48:19;8.95;;;7.55;;
34872;SDS011;21084;51.098;14.506;2022-08-03T04:50:25;8.68;;;7.50;;
34872;SDS011;21084;51.098;14.506;2022-08-03T04:52:29;11.35;;;7.35;;
34872;SDS011;21084;51.098;14.506;2022-08-03T04:54:37;9.75;;;7.95;;
34872;SDS011;21084;51.098;14.506;2022-08-03T04:56:41;10.45;;;7.72;;
34872;SDS011;21084;51.098;14.506;2022-08-03T04:58:44;9.00;;;7.00;;
34872;SDS011;21084;51.098;14.506;2022-08-03T05:00:47;8.45;;;7.13;;
34872;SDS011;21084;51.098;14.506;2022-08-03T05:02:51;9.18;;;7.03;;
34872;SDS011;21084;51.098;14.506;2022-08-03T05:04:54;7.93;;;6.68;;
34872;SDS011;21084;51.098;14.506;2022-08-03T05:07:00;8.80;;;6.60;;
34872;SDS011;21084;51.098;14.506;2022-08-03T05:09:13;19.77;;;6.65;;
34872;SDS011;21084;51.098;14.506;2022-08-03T05:11:36;8.35;;;6.57;;
34872;SDS011;21084;51.098;14.506;2022-08-03T05:13:39;10.68;;;6.95;;
34872;SDS011;21084;51.098;14.506;2022-08-03T05:15:42;13.38;;;6.18;;
34872;SDS011;21084;51.098;14.506;2022-08-03T05:17:45;10.57;;;7.03;;
34872;SDS011;21084;51.098;14.506;2022-08-03T05:19:48;13.65;;;6.30;;
34872;SDS011;21084;51.098;14.506;2022-08-03T05:21:50;8.13;;;6.40;;
34872;SDS011;21084;51.098;14.506;2022-08-03T05:23:56;10.00;;;6.47;;
34872;SDS011;21084;51.098;14.506;2022-08-03T05:25:59;11.93;;;6.50;;
34872;SDS011;21084;51.098;14.506;2022-08-03T05:28:03;10.45;;;6.13;;
34872;SDS011;21084;51.098;14.506;2022-08-03T05:30:07;10.68;;;6.60;;
34872;SDS011;21084;51.098;14.506;2022-08-03T05:32:32;7.60;;;6.43;;
34872;SDS011;21084;51.098;14.506;2022-08-03T05:34:35;8.10;;;6.25;;
34872;SDS011;21084;51.098;14.506;2022-08-03T05:36:38;7.13;;;6.43;;
34872;SDS011;21084;51.098;14.506;2022-08-03T05:38:41;7.03;;;5.70;;
34872;SDS011;21084;51.098;14.506;2022-08-03T05:40:47;8.52;;;6.32;;
34872;SDS011;21084;51.098;14.506;2022-08-03T05:43:10;7.93;;;5.95;;
34872;SDS011;21084;51.098;14.506;2022-08-03T05:45:13;7.88;;;5.93;;
34872;SDS011;21084;51.098;14.506;2022-08-03T05:47:16;7.00;;;5.53;;
34872;SDS011;21084;51.098;14.506;2022-08-03T05:49:20;6.63;;;4.88;;
34872;SDS011;21084;51.098;14.506;2022-08-03T05:51:23;5.68;;;5.05;;
34872;SDS011;21084;51.098;14.506;2022-08-03T05:53:26;4.65;;;4.13;;
34872;SDS011;21084;51.098;14.506;2022-08-03T05:55:29;4.30;;;3.90;;
34872;SDS011;21084;51.098;14.506;2022-08-03T05:57:35;5.93;;;3.85;;
34872;SDS011;21084;51.098;14.506;2022-08-03T05:59:39;4.55;;;3.50;;
34872;SDS011;21084;51.098;14.506;2022-08-03T06:01:57;4.53;;;3.60;;
34872;SDS011;21084;51.098;14.506;2022-08-03T06:04:00;7.57;;;4.10;;
34872;SDS011;21084;51.098;14.506;2022-08-03T06:06:04;7.15;;;3.83;;
34872;SDS011;21084;51.098;14.506;2022-08-03T06:08:07;6.30;;;3.47;;
34872;SDS011;21084;51.098;14.506;2022-08-03T06:10:10;4.80;;;3.17;;
34872;SDS011;21084;51.098;14.506;2022-08-03T06:12:36;5.85;;;3.65;;
34872;SDS011;21084;51.098;14.506;2022-08-03T06:14:39;6.13;;;3.40;;
34872;SDS011;21084;51.098;14.506;2022-08-03T06:16:42;5.60;;;3.15;;
34872;SDS011;21084;51.098;14.506;2022-08-03T06:18:45;4.60;;;3.30;;
34872;SDS011;21084;51.098;14.506;2022-08-03T06:20:48;9.10;;;3.70;;
34872;SDS011;21084;51.098;14.506;2022-08-03T06:22:53;3.38;;;3.08;;
34872;SDS011;21084;51.098;14.506;2022-08-03T06:25:02;5.78;;;3.47;;
34872;SDS011;21084;51.098;14.506;2022-08-03T06:27:12;4.97;;;3.08;;
34872;SDS011;21084;51.098;14.506;2022-08-03T06:29:18;4.63;;;3.33;;
34872;SDS011;21084;51.098;14.506;2022-08-03T06:31:24;5.13;;;3.22;;
34872;SDS011;21084;51.098;14.506;2022-08-03T06:33:34;6.20;;;2.92;;
34872;SDS011;21084;51.098;14.506;2022-08-03T06:35:57;2.67;;;2.40;;
34872;SDS011;21084;51.098;14.506;2022-08-03T06:38:01;5.28;;;2.70;;
34872;SDS011;21084;51.098;14.506;2022-08-03T06:40:04;4.63;;;2.70;;
34872;SDS011;21084;51.098;14.506;2022-08-03T06:42:08;4.05;;;2.78;;
34872;SDS011;21084;51.098;14.506;2022-08-03T06:44:11;3.70;;;2.70;;
34872;SDS011;21084;51.098;14.506;2022-08-03T06:46:17;5.22;;;2.92;;
34872;SDS011;21084;51.098;14.506;2022-08-03T06:48:20;3.03;;;2.67;;
34872;SDS011;21084;51.098;14.506;2022-08-03T06:50:23;6.35;;;2.90;;
34872;SDS011;21084;51.098;14.506;2022-08-03T06:52:27;4.75;;;2.83;;
34872;SDS011;21084;51.098;14.506;2022-08-03T06:54:39;4.88;;;2.55;;
34872;SDS011;21084;51.098;14.506;2022-08-03T06:56:43;3.13;;;2.63;;
34872;SDS011;21084;51.098;14.506;2022-08-03T06:58:46;2.80;;;2.50;;
34872;SDS011;21084;51.098;14.506;2022-08-03T07:00:49;2.63;;;2.42;;
34872;SDS011;21084;51.098;14.506;2022-08-03T07:02:55;10.30;;;2.60;;
34872;SDS011;21084;51.098;14.506;2022-08-03T07:04:59;3.33;;;2.78;;
34872;SDS011;21084;51.098;14.506;2022-08-03T07:07:02;5.25;;;2.50;;
34872;SDS011;21084;51.098;14.506;2022-08-03T07:09:06;5.70;;;2.78;;
34872;SDS011;21084;51.098;14.506;2022-08-03T07:11:09;3.70;;;2.55;;
34872;SDS011;21084;51.098;14.506;2022-08-03T07:13:12;5.75;;;2.60;;
34872;SDS011;21084;51.098;14.506;2022-08-03T07:15:15;2.25;;;1.98;;
34872;SDS011;21084;51.098;14.506;2022-08-03T07:17:38;5.50;;;2.72;;
34872;SDS011;21084;51.098;14.506;2022-08-03T07:19:44;5.13;;;2.50;;
34872;SDS011;21084;51.098;14.506;2022-08-03T07:21:47;5.53;;;2.53;;
34872;SDS011;21084;51.098;14.506;2022-08-03T07:23:54;5.63;;;2.88;;
34872;SDS011;21084;51.098;14.506;2022-08-03T07:25:57;2.63;;;2.42;;
34872;SDS011;21084;51.098;14.506;2022-08-03T07:28:00;6.05;;;2.70;;
34872;SDS011;21084;51.098;14.506;2022-08-03T07:30:05;7.53;;;2.72;;
34872;SDS011;21084;51.098;14.506;2022-08-03T07:32:08;3.33;;;2.60;;
34872;SDS011;21084;51.098;14.506;2022-08-03T07:34:11;5.15;;;2.55;;
34872;SDS011;21084;51.098;14.506;2022-08-03T07:36:17;4.47;;;2.40;;
34872;SDS011;21084;51.098;14.506;2022-08-03T07:38:20;5.30;;;2.70;;
34872;SDS011;21084;51.098;14.506;2022-08-03T07:40:23;3.80;;;2.88;;
34872;SDS011;21084;51.098;14.506;2022-08-03T07:42:32;2.90;;;2.60;;
34872;SDS011;21084;51.098;14.506;2022-08-03T07:44:36;3.22;;;2.30;;
34872;SDS011;21084;51.098;14.506;2022-08-03T07:46:39;3.70;;;2.05;;
34872;SDS011;21084;51.098;14.506;2022-08-03T07:48:42;2.22;;;2.03;;
34872;SDS011;21084;51.098;14.506;2022-08-03T07:50:45;2.65;;;2.13;;
34872;SDS011;21084;51.098;14.506;2022-08-03T07:52:51;4.82;;;2.10;;
34872;SDS011;21084;51.098;14.506;2022-08-03T07:54:54;2.38;;;2.10;;
34872;SDS011;21084;51.098;14.506;2022-08-03T07:56:58;2.10;;;2.00;;
34872;SDS011;21084;51.098;14.506;2022-08-03T07:59:01;3.28;;;2.20;;
34872;SDS011;21084;51.098;14.506;2022-08-03T08:01:04;4.90;;;2.25;;
34872;SDS011;21084;51.098;14.506;2022-08-03T08:03:07;2.30;;;2.10;;
34872;SDS011;21084;51.098;14.506;2022-08-03T08:05:10;2.50;;;2.20;;
34872;SDS011;21084;51.098;14.506;2022-08-03T08:07:14;5.15;;;2.30;;
34872;SDS011;21084;51.098;14.506;2022-08-03T08:09:22;6.20;;;2.28;;
34872;SDS011;21084;51.098;14.506;2022-08-03T08:11:25;2.03;;;1.85;;
34872;SDS011;21084;51.098;14.506;2022-08-03T08:13:28;3.05;;;2.20;;
34872;SDS011;21084;51.098;14.506;2022-08-03T08:15:31;2.20;;;2.00;;
34872;SDS011;21084;51.098;14.506;2022-08-03T08:17:44;2.78;;;2.55;;
34872;SDS011;21084;51.098;14.506;2022-08-03T08:19:47;8.18;;;2.78;;
34872;SDS011;21084;51.098;14.506;2022-08-03T08:21:52;2.72;;;2.10;;
34872;SDS011;21084;51.098;14.506;2022-08-03T08:24:04;3.08;;;2.20;;
34872;SDS011;21084;51.098;14.506;2022-08-03T08:26:21;2.55;;;2.33;;
34872;SDS011;21084;51.098;14.506;2022-08-03T08:28:24;3.90;;;2.10;;
34872;SDS011;21084;51.098;14.506;2022-08-03T08:30:34;4.88;;;1.90;;
34872;SDS011;21084;51.098;14.506;2022-08-03T08:32:37;2.22;;;2.00;;
34872;SDS011;21084;51.098;14.506;2022-08-03T08:34:41;5.05;;;2.05;;
34872;SDS011;21084;51.098;14.506;2022-08-03T08:36:44;6.28;;;2.10;;
34872;SDS011;21084;51.098;14.506;2022-08-03T08:38:49;4.82;;;2.40;;
34872;SDS011;21084;51.098;14.506;2022-08-03T08:40:54;3.42;;;1.92;;
34872;SDS011;21084;51.098;14.506;2022-08-03T08:43:00;2.00;;;1.90;;
34872;SDS011;21084;51.098;14.506;2022-08-03T08:45:04;2.42;;;1.92;;
34872;SDS011;21084;51.098;14.506;2022-08-03T08:47:08;2.47;;;2.28;;
34872;SDS011;21084;51.098;14.506;2022-08-03T08:49:12;4.43;;;1.90;;
34872;SDS011;21084;51.098;14.506;2022-08-03T08:51:19;2.17;;;1.98;;
34872;SDS011;21084;51.098;14.506;2022-08-03T08:53:23;2.92;;;2.10;;
34872;SDS011;21084;51.098;14.506;2022-08-03T08:55:29;4.97;;;2.28;;
34872;SDS011;21084;51.098;14.506;2022-08-03T08:57:54;3.25;;;2.17;;
34872;SDS011;21084;51.098;14.506;2022-08-03T09:00:02;3.88;;;1.80;;
34872;SDS011;21084;51.098;14.506;2022-08-03T09:02:05;4.22;;;1.70;;
34872;SDS011;21084;51.098;14.506;2022-08-03T09:04:09;2.55;;;1.92;;
34872;SDS011;21084;51.098;14.506;2022-08-03T09:06:12;3.03;;;1.85;;
34872;SDS011;21084;51.098;14.506;2022-08-03T09:08:15;4.00;;;2.05;;
34872;SDS011;21084;51.098;14.506;2022-08-03T09:10:18;7.70;;;1.90;;
34872;SDS011;21084;51.098;14.506;2022-08-03T09:12:22;6.57;;;2.58;;
34872;SDS011;21084;51.098;14.506;2022-08-03T09:14:43;3.85;;;2.20;;
34872;SDS011;21084;51.098;14.506;2022-08-03T09:17:09;2.30;;;2.10;;
34872;SDS011;21084;51.098;14.506;2022-08-03T09:19:18;1.88;;;1.70;;
34872;SDS011;21084;51.098;14.506;2022-08-03T09:21:22;2.00;;;1.80;;
34872;SDS011;21084;51.098;14.506;2022-08-03T09:23:42;2.17;;;1.75;;
34872;SDS011;21084;51.098;14.506;2022-08-03T09:26:03;1.95;;;1.80;;
34872;SDS011;21084;51.098;14.506;2022-08-03T09:28:08;3.25;;;2.00;;
34872;SDS011;21084;51.098;14.506;2022-08-03T09:30:12;4.07;;;1.85;;
34872;SDS011;21084;51.098;14.506;2022-08-03T09:32:38;4.63;;;1.98;;
34872;SDS011;21084;51.098;14.506;2022-08-03T09:34:41;3.30;;;1.70;;
34872;SDS011;21084;51.098;14.506;2022-08-03T09:36:45;2.78;;;1.92;;
34872;SDS011;21084;51.098;14.506;2022-08-03T09:38:53;6.20;;;1.70;;
34872;SDS011;21084;51.098;14.506;2022-08-03T09:41:02;3.85;;;2.13;;
34872;SDS011;21084;51.098;14.506;2022-08-03T09:43:19;3.13;;;1.90;;
34872;SDS011;21084;51.098;14.506;2022-08-03T09:45:25;2.40;;;2.03;;
34872;SDS011;21084;51.098;14.506;2022-08-03T09:47:29;1.63;;;1.52;;
34872;SDS011;21084;51.098;14.506;2022-08-03T09:49:35;2.58;;;1.95;;
34872;SDS011;21084;51.098;14.506;2022-08-03T09:51:39;5.63;;;1.60;;
34872;SDS011;21084;51.098;14.506;2022-08-03T09:54:02;5.60;;;2.15;;
34872;SDS011;21084;51.098;14.506;2022-08-03T09:56:09;3.38;;;1.92;;
34872;SDS011;21084;51.098;14.506;2022-08-03T09:58:32;2.45;;;2.10;;
34872;SDS011;21084;51.098;14.506;2022-08-03T10:00:45;2.95;;;1.95;;
34872;SDS011;21084;51.098;14.506;2022-08-03T10:03:02;2.15;;;1.80;;
34872;SDS011;21084;51.098;14.506;2022-08-03T10:05:08;4.00;;;1.88;;
34872;SDS011;21084;51.098;14.506;2022-08-03T10:07:21;2.00;;;1.90;;
34872;SDS011;21084;51.098;14.506;2022-08-03T10:09:24;2.25;;;2.03;;
34872;SDS011;21084;51.098;14.506;2022-08-03T10:11:28;2.40;;;2.08;;
34872;SDS011;21084;51.098;14.506;2022-08-03T10:13:31;1.98;;;1.88;;
34872;SDS011;21084;51.098;14.506;2022-08-03T10:15:35;2.83;;;2.10;;
34872;SDS011;21084;51.098;14.506;2022-08-03T10:17:58;2.00;;;1.80;;
34872;SDS011;21084;51.098;14.506;2022-08-03T10:20:03;2.17;;;1.80;;
34872;SDS011;21084;51.098;14.506;2022-08-03T10:22:09;2.22;;;2.03;;
34872;SDS011;21084;51.098;14.506;2022-08-03T10:24:14;2.85;;;1.90;;
34872;SDS011;21084;51.098;14.506;2022-08-03T10:26:18;2.65;;;1.77;;
34872;SDS011;21084;51.098;14.506;2022-08-03T10:28:23;3.83;;;1.65;;
34872;SDS011;21084;51.098;14.506;2022-08-03T10:30:27;2.20;;;2.00;;
34872;SDS011;21084;51.098;14.506;2022-08-03T10:32:33;2.08;;;1.83;;
34872;SDS011;21084;51.098;14.506;2022-08-03T10:34:36;4.65;;;1.90;;
34872;SDS011;21084;51.098;14.506;2022-08-03T10:36:45;2.00;;;1.65;;
34872;SDS011;21084;51.098;14.506;2022-08-03T10:38:52;4.78;;;2.15;;
34872;SDS011;21084;51.098;14.506;2022-08-03T10:40:56;1.75;;;1.58;;
34872;SDS011;21084;51.098;14.506;2022-08-03T10:43:02;2.97;;;1.75;;
34872;SDS011;21084;51.098;14.506;2022-08-03T10:45:13;6.03;;;1.90;;
34872;SDS011;21084;51.098;14.506;2022-08-03T10:49:20;1.90;;;1.80;;
34872;SDS011;21084;51.098;14.506;2022-08-03T10:51:36;2.38;;;1.70;;
34872;SDS011;21084;51.098;14.506;2022-08-03T10:53:40;2.13;;;1.92;;
34872;SDS011;21084;51.098;14.506;2022-08-03T10:55:59;4.53;;;1.98;;
34872;SDS011;21084;51.098;14.506;2022-08-03T10:58:02;1.67;;;1.58;;
34872;SDS011;21084;51.098;14.506;2022-08-03T11:00:12;1.98;;;1.85;;
34872;SDS011;21084;51.098;14.506;2022-08-03T11:02:15;2.40;;;1.80;;
34872;SDS011;21084;51.098;14.506;2022-08-03T11:04:19;3.13;;;1.60;;
34872;SDS011;21084;51.098;14.506;2022-08-03T11:06:23;1.50;;;1.40;;
34872;SDS011;21084;51.098;14.506;2022-08-03T11:08:27;2.75;;;1.73;;
34872;SDS011;21084;51.098;14.506;2022-08-03T11:10:30;6.40;;;1.60;;
34872;SDS011;21084;51.098;14.506;2022-08-03T11:12:36;2.25;;;2.00;;
34872;SDS011;21084;51.098;14.506;2022-08-03T11:14:44;2.40;;;1.60;;
34872;SDS011;21084;51.098;14.506;2022-08-03T11:16:48;2.10;;;1.63;;
34872;SDS011;21084;51.098;14.506;2022-08-03T11:18:55;2.38;;;1.73;;
34872;SDS011;21084;51.098;14.506;2022-08-03T11:20:59;3.40;;;1.83;;
34872;SDS011;21084;51.098;14.506;2022-08-03T11:23:02;4.45;;;1.80;;
34872;SDS011;21084;51.098;14.506;2022-08-03T11:25:06;3.15;;;1.77;;
34872;SDS011;21084;51.098;14.506;2022-08-03T11:27:30;2.38;;;1.92;;
34872;SDS011;21084;51.098;14.506;2022-08-03T11:29:36;6.78;;;2.00;;
34872;SDS011;21084;51.098;14.506;2022-08-03T11:31:43;5.28;;;2.03;;
34872;SDS011;21084;51.098;14.506;2022-08-03T11:34:02;2.15;;;1.95;;
34872;SDS011;21084;51.098;14.506;2022-08-03T11:36:05;2.42;;;2.05;;
34872;SDS011;21084;51.098;14.506;2022-08-03T11:38:11;3.40;;;2.00;;
34872;SDS011;21084;51.098;14.506;2022-08-03T11:42:39;2.40;;;2.20;;
34872;SDS011;21084;51.098;14.506;2022-08-03T11:44:45;4.65;;;2.50;;
34872;SDS011;21084;51.098;14.506;2022-08-03T11:46:48;4.30;;;2.70;;
34872;SDS011;21084;51.098;14.506;2022-08-03T11:48:52;13.65;;;2.60;;
34872;SDS011;21084;51.098;14.506;2022-08-03T11:50:56;2.90;;;2.42;;
34872;SDS011;21084;51.098;14.506;2022-08-03T11:52:59;2.75;;;2.10;;
34872;SDS011;21084;51.098;14.506;2022-08-03T11:55:02;2.45;;;2.25;;
34872;SDS011;21084;51.098;14.506;2022-08-03T11:57:10;5.57;;;2.83;;
34872;SDS011;21084;51.098;14.506;2022-08-03T11:59:13;9.98;;;2.40;;
34872;SDS011;21084;51.098;14.506;2022-08-03T12:01:25;5.18;;;2.20;;
34872;SDS011;21084;51.098;14.506;2022-08-03T12:03:30;6.18;;;2.53;;
34872;SDS011;21084;51.098;14.506;2022-08-03T12:05:44;5.25;;;2.45;;
34872;SDS011;21084;51.098;14.506;2022-08-03T12:07:53;2.50;;;2.30;;
34872;SDS011;21084;51.098;14.506;2022-08-03T12:10:07;4.47;;;2.28;;
34872;SDS011;21084;51.098;14.506;2022-08-03T12:12:14;3.35;;;2.50;;
34872;SDS011;21084;51.098;14.506;2022-08-03T12:14:18;2.40;;;2.20;;
34872;SDS011;21084;51.098;14.506;2022-08-03T12:16:43;3.80;;;2.78;;
34872;SDS011;21084;51.098;14.506;2022-08-03T12:18:53;3.40;;;2.80;;
34872;SDS011;21084;51.098;14.506;2022-08-03T12:21:02;4.30;;;2.97;;
34872;SDS011;21084;51.098;14.506;2022-08-03T12:23:06;5.65;;;2.60;;
34872;SDS011;21084;51.098;14.506;2022-08-03T12:25:14;13.80;;;2.80;;
34872;SDS011;21084;51.098;14.506;2022-08-03T12:27:40;5.13;;;2.60;;
34872;SDS011;21084;51.098;14.506;2022-08-03T12:29:44;3.35;;;2.33;;
34872;SDS011;21084;51.098;14.506;2022-08-03T12:32:03;4.50;;;2.42;;
34872;SDS011;21084;51.098;14.506;2022-08-03T12:34:06;3.20;;;2.47;;
34872;SDS011;21084;51.098;14.506;2022-08-03T12:36:09;9.80;;;2.40;;